Time;durP1;ratioP1;P1;durP2;ratioP2;P2;SDS_P1;SDS_P2;PMS_P1;PMS_P2;Temp;Humidity;BMP_temperature;BMP_pressure;BME280_temperature;BME280_humidity;BME280_pressure;Samples;Min_cycle;Max_cycle;Signal;HPM_P1;HPM_P2
2023/03/17 00:00:09;;;;;;;5.25;2.45;;;;;;;9.11;59.21;100462.28;4999832;28;20029;-68
2023/03/17 00:02:35;;;;;;;5.22;2.33;;;;;;;9.07;58.84;100458.03;5003228;28;20038;-68
2023/03/17 00:05:01;;;;;;;4.43;2.58;;;;;;;9.01;59.71;100473.53;4993442;28;20069;-68
2023/03/17 00:07:27;;;;;;;3.83;2.35;;;;;;;8.97;60.23;100477.00;4992392;28;20688;-68
2023/03/17 00:09:53;;;;;;;4.95;2.53;;;;;;;8.98;59.50;100480.44;4988565;28;20038;-68
2023/03/17 00:12:18;;;;;;;3.40;2.10;;;;;;;8.94;59.78;100487.31;4991012;28;20562;-68
2023/03/17 00:14:45;;;;;;;3.95;2.63;;;;;;;8.87;59.91;100488.22;4986919;28;20042;-68
2023/03/17 00:17:12;;;;;;;4.05;2.25;;;;;;;8.80;59.85;100499.44;4989657;28;20053;-68
2023/03/17 00:19:40;;;;;;;4.68;2.35;;;;;;;8.78;60.26;100492.59;4989415;28;20095;-68
2023/03/17 00:22:14;;;;;;;3.40;1.77;;;;;;;8.69;60.51;100498.66;4996812;28;20022;-68
2023/03/17 00:24:39;;;;;;;4.22;2.38;;;;;;;8.68;60.99;100494.34;4995693;28;20125;-68
2023/03/17 00:27:12;;;;;;;5.07;2.35;;;;;;;8.69;60.42;100493.50;4992198;28;20535;-68
2023/03/17 00:29:39;;;;;;;4.30;2.45;;;;;;;8.73;60.68;100484.88;4992132;28;20108;-69
2023/03/17 00:32:18;;;;;;;4.47;2.30;;;;;;;8.73;60.20;100491.72;4994579;28;20158;-69
2023/03/17 00:34:44;;;;;;;4.47;2.58;;;;;;;8.73;60.15;100491.72;4996451;28;20137;-68
2023/03/17 00:37:12;;;;;;;6.07;2.50;;;;;;;8.67;60.82;100495.19;4994343;28;20121;-68
2023/03/17 00:39:38;;;;;;;4.90;2.88;;;;;;;8.68;60.56;100496.91;5000339;28;20099;-69
2023/03/17 00:42:05;;;;;;;5.68;2.25;;;;;;;8.69;60.12;100495.22;4991748;28;20085;-69
2023/03/17 00:44:31;;;;;;;4.15;2.15;;;;;;;8.64;61.19;100514.97;4999923;28;20076;-69
2023/03/17 00:46:57;;;;;;;2.97;2.15;;;;;;;8.54;61.16;100520.16;4995963;28;20044;-68
2023/03/17 00:49:24;;;;;;;4.55;2.53;;;;;;;8.50;61.15;100528.78;4990112;28;20038;-68
2023/03/17 00:51:50;;;;;;;6.80;2.33;;;;;;;8.46;61.54;100546.81;4992847;28;20502;-68
2023/03/17 00:54:17;;;;;;;4.25;2.67;;;;;;;8.52;60.99;100545.06;4992635;28;20467;-69
2023/03/17 00:56:43;;;;;;;4.10;2.58;;;;;;;8.66;61.28;100547.63;4988332;28;20057;-68
2023/03/17 00:59:20;;;;;;;6.20;2.55;;;;;;;8.64;60.82;100556.19;5000446;28;20037;-69
2023/03/17 01:01:46;;;;;;;4.18;2.35;;;;;;;8.59;61.28;100561.38;5002879;28;20030;-69
2023/03/17 01:04:12;;;;;;;7.57;2.90;;;;;;;8.62;62.00;100555.34;4992700;28;20475;-69
2023/03/17 01:06:38;;;;;;;6.18;2.83;;;;;;;8.67;61.57;100545.88;4993673;28;20034;-68
2023/03/17 01:09:03;;;;;;;4.45;2.47;;;;;;;8.66;61.69;100536.44;4986593;28;20046;-68
2023/03/17 01:11:29;;;;;;;4.05;2.20;;;;;;;8.62;61.43;100537.31;4987047;28;20054;-69
2023/03/17 01:13:55;;;;;;;4.63;2.78;;;;;;;8.72;61.58;100524.41;4986777;28;20042;-68
2023/03/17 01:16:23;;;;;;;7.60;2.75;;;;;;;8.68;62.16;100520.13;4995153;28;20045;-68
2023/03/17 01:18:49;;;;;;;5.70;2.10;;;;;;;8.70;61.72;100515.81;4991765;28;20962;-68
2023/03/17 01:21:14;;;;;;;5.55;2.75;;;;;;;8.73;61.28;100514.91;4992719;28;20047;-68
2023/03/17 01:23:41;;;;;;;6.05;3.03;;;;;;;8.73;61.15;100517.50;4992005;28;20039;-68
2023/03/17 01:26:06;;;;;;;8.52;2.78;;;;;;;8.67;61.93;100523.53;4992392;28;20125;-68
2023/03/17 01:28:32;;;;;;;5.13;2.28;;;;;;;8.65;61.52;100520.13;4995128;28;20091;-69
2023/03/17 01:30:59;;;;;;;3.25;2.05;;;;;;;8.62;61.23;100525.28;4987604;28;20037;-69
2023/03/17 01:33:25;;;;;;;7.82;2.63;;;;;;;8.55;62.39;100524.44;4991654;28;20042;-68
2023/03/17 01:35:51;;;;;;;7.07;3.00;;;;;;;8.57;61.65;100509.84;4990326;28;20033;-69
2023/03/17 01:38:16;;;;;;;4.45;2.35;;;;;;;8.54;62.10;100512.44;4986511;28;20729;-68
2023/03/17 01:40:50;;;;;;;4.45;2.40;;;;;;;8.50;62.37;100510.75;4991844;28;20037;-68
2023/03/17 01:43:24;;;;;;;4.88;2.70;;;;;;;8.42;62.58;100515.09;4990967;28;20141;-68
2023/03/17 01:46:15;;;;;;;5.85;2.90;;;;;;;8.33;62.94;100503.94;4990992;28;20125;-68
2023/03/17 01:48:52;;;;;;;3.40;2.28;;;;;;;8.27;62.71;100509.13;4994868;28;20040;-68
2023/03/17 01:51:23;;;;;;;4.85;2.42;;;;;;;8.18;63.12;100506.56;4990039;28;20081;-68
2023/03/17 01:53:51;;;;;;;5.13;2.40;;;;;;;8.05;64.45;100523.75;4992370;28;20037;-68
2023/03/17 01:56:18;;;;;;;5.60;2.88;;;;;;;7.80;65.76;100545.25;4991950;28;20447;-68
2023/03/17 01:58:48;;;;;;;6.05;2.60;;;;;;;7.57;66.59;100557.22;4988205;28;20103;-68
2023/03/17 02:01:13;;;;;;;4.68;2.50;;;;;;;7.39;67.56;100561.50;4989750;28;20036;-68
2023/03/17 02:03:39;;;;;;;5.07;3.00;;;;;;;7.23;68.15;100559.78;4991197;28;20777;-68
2023/03/17 02:06:06;;;;;;;4.07;2.70;;;;;;;7.12;68.88;100556.28;4988782;28;20109;-68
2023/03/17 02:08:31;;;;;;;6.43;2.85;;;;;;;7.04;68.94;100562.25;4988815;28;20129;-68
2023/03/17 02:10:57;;;;;;;5.07;2.78;;;;;;;6.99;69.39;100546.84;4997135;28;20041;-68
2023/03/17 02:13:23;;;;;;;5.65;2.60;;;;;;;7.00;68.95;100543.41;4996210;28;20026;-67
2023/03/17 02:15:51;;;;;;;5.35;2.83;;;;;;;6.95;69.07;100533.97;4990576;28;20052;-67
2023/03/17 02:18:19;;;;;;;5.70;3.03;;;;;;;6.97;69.54;100534.84;5000791;28;20042;-68
2023/03/17 02:20:47;;;;;;;5.93;3.08;;;;;;;6.87;69.38;100542.53;4996952;28;20064;-67
2023/03/17 02:23:22;;;;;;;5.93;3.40;;;;;;;6.81;69.84;100542.53;4997075;28;20129;-68
2023/03/17 02:25:49;;;;;;;4.88;2.90;;;;;;;6.76;70.22;100539.06;4988455;28;20105;-67
2023/03/17 02:28:20;;;;;;;7.53;3.10;;;;;;;6.67;70.33;100539.06;4994027;28;20044;-68
2023/03/17 02:30:45;;;;;;;5.47;2.92;;;;;;;6.54;71.26;100538.97;4986826;28;20034;-65
2023/03/17 02:33:11;;;;;;;5.35;3.40;;;;;;;6.48;71.29;100526.97;4992211;28;20061;-65
2023/03/17 02:35:37;;;;;;;5.78;3.20;;;;;;;6.45;71.70;100519.25;5000128;28;20148;-64
2023/03/17 02:38:02;;;;;;;5.25;3.13;;;;;;;6.39;71.77;100524.38;4989420;28;20078;-65
2023/03/17 02:40:28;;;;;;;6.35;3.50;;;;;;;6.29;72.08;100518.31;4993255;28;20483;-65
2023/03/17 02:42:54;;;;;;;5.38;2.85;;;;;;;6.24;72.35;100520.03;4993791;28;20033;-65
2023/03/17 02:45:19;;;;;;;7.47;3.35;;;;;;;6.13;72.78;100513.13;4982853;28;20049;-64
2023/03/17 02:47:45;;;;;;;7.03;3.25;;;;;;;6.03;72.93;100508.78;4995732;28;20038;-65
2023/03/17 02:50:21;;;;;;;5.22;2.83;;;;;;;5.96;73.24;100505.31;4992280;28;20030;-64
2023/03/17 02:52:48;;;;;;;4.95;2.88;;;;;;;5.90;74.12;100500.16;4994217;28;20052;-64
2023/03/17 02:55:13;;;;;;;11.35;3.22;;;;;;;5.91;73.88;100486.47;4996881;28;20085;-64
2023/03/17 02:57:39;;;;;;;4.18;2.78;;;;;;;5.93;74.19;100483.94;4986601;28;20097;-64
2023/03/17 03:00:09;;;;;;;5.93;3.10;;;;;;;5.91;74.17;100485.63;4991254;28;20035;-64
2023/03/17 03:02:34;;;;;;;6.65;3.15;;;;;;;5.95;74.36;100489.94;4993165;28;20514;-65
2023/03/17 03:05:00;;;;;;;6.78;3.20;;;;;;;5.88;73.54;100483.03;4994603;28;20038;-65
2023/03/17 03:07:25;;;;;;;6.95;3.53;;;;;;;5.85;74.22;100486.44;4994641;28;20061;-65
2023/03/17 03:09:51;;;;;;;7.68;3.22;;;;;;;5.81;74.29;100481.28;4991157;28;20117;-65
2023/03/17 03:12:16;;;;;;;5.72;3.78;;;;;;;5.78;73.89;100489.84;4997371;28;20042;-65
2023/03/17 03:14:41;;;;;;;5.50;2.72;;;;;;;5.72;74.78;100500.88;4993059;28;20406;-65
2023/03/17 03:17:08;;;;;;;4.95;2.65;;;;;;;5.67;74.36;100507.69;4996299;28;20045;-64
2023/03/17 03:19:33;;;;;;;6.03;3.13;;;;;;;5.59;74.82;100509.34;4998544;28;20037;-65
2023/03/17 03:21:59;;;;;;;8.27;3.80;;;;;;;5.53;74.45;100493.94;4998773;28;20064;-65
2023/03/17 03:24:25;;;;;;;7.68;3.67;;;;;;;5.50;74.69;100503.28;5003015;28;20065;-64
2023/03/17 03:26:50;;;;;;;5.72;3.25;;;;;;;5.63;74.42;100494.84;4998256;28;20385;-64
2023/03/17 03:29:16;;;;;;;4.47;3.30;;;;;;;5.62;74.80;100499.13;5000078;28;20134;-64
2023/03/17 03:31:41;;;;;;;6.03;2.97;;;;;;;5.56;74.08;100506.75;4995381;28;20037;-64
2023/03/17 03:34:07;;;;;;;4.93;3.00;;;;;;;5.52;74.90;100506.72;4994625;28;20030;-64
2023/03/17 03:36:33;;;;;;;5.30;2.90;;;;;;;5.46;75.31;100504.09;4991976;28;20076;-64
2023/03/17 03:38:59;;;;;;;7.93;3.67;;;;;;;5.45;75.87;100505.84;5000605;28;20118;-64
2023/03/17 03:41:26;;;;;;;6.63;3.00;;;;;;;5.38;75.57;100516.88;4990255;28;20042;-64
2023/03/17 03:43:51;;;;;;;5.45;3.25;;;;;;;5.31;75.73;100515.09;4993157;28;20068;-65
2023/03/17 03:46:17;;;;;;;6.55;3.67;;;;;;;5.32;75.68;100501.44;4996096;28;20031;-64
2023/03/17 03:48:42;;;;;;;5.85;3.08;;;;;;;5.30;75.76;100495.44;4992906;28;20045;-64
2023/03/17 03:51:08;;;;;;;5.25;3.33;;;;;;;5.31;76.45;100492.03;4995903;28;20095;-64
2023/03/17 03:53:33;;;;;;;7.47;2.95;;;;;;;5.30;76.00;100498.00;4998482;28;20039;-65
2023/03/17 03:55:58;;;;;;;5.18;3.13;;;;;;;5.25;76.03;100499.66;4999422;28;20037;-64
2023/03/17 03:58:24;;;;;;;4.95;3.05;;;;;;;5.24;76.41;100497.97;5000238;28;20038;-64
2023/03/17 04:00:50;;;;;;;5.90;3.78;;;;;;;5.28;76.51;100494.56;4994479;28;20038;-64
2023/03/17 04:03:16;;;;;;;6.50;4.05;;;;;;;5.30;75.89;100497.16;4993952;28;20033;-64
2023/03/17 04:05:42;;;;;;;5.93;3.20;;;;;;;5.32;75.80;100495.44;4993689;28;20522;-64
2023/03/17 04:08:08;;;;;;;8.90;3.00;;;;;;;5.34;75.71;100493.78;4993205;28;20577;-65
2023/03/17 04:10:33;;;;;;;5.32;3.55;;;;;;;5.43;76.40;100484.44;4991292;28;20046;-64
2023/03/17 04:12:59;;;;;;;7.53;3.85;;;;;;;5.41;75.85;100490.41;4993326;28;20262;-64
2023/03/17 04:15:25;;;;;;;7.15;3.97;;;;;;;5.44;75.76;100475.91;4992974;28;20041;-64
2023/03/17 04:17:50;;;;;;;5.75;3.22;;;;;;;5.55;75.41;100456.34;4995192;28;20049;-64
2023/03/17 04:20:17;;;;;;;5.43;3.65;;;;;;;5.47;75.25;100472.50;4994311;28;20038;-64
2023/03/17 04:22:43;;;;;;;4.05;3.10;;;;;;;5.38;75.46;100481.00;4987451;28;20128;-64
2023/03/17 04:25:11;;;;;;;5.70;3.20;;;;;;;5.34;75.90;100486.91;4995325;28;20036;-64
2023/03/17 04:27:36;;;;;;;5.70;3.08;;;;;;;5.25;75.59;100486.84;4995066;28;20512;-64
2023/03/17 04:30:03;;;;;;;5.25;2.80;;;;;;;5.23;76.35;100489.41;4992053;28;20048;-64
2023/03/17 04:32:28;;;;;;;6.32;4.05;;;;;;;5.20;76.36;100485.97;4986421;28;20041;-64
2023/03/17 04:34:53;;;;;;;6.93;3.90;;;;;;;5.21;75.88;100492.81;4994500;28;20499;-65
2023/03/17 04:37:19;;;;;;;5.78;3.85;;;;;;;5.19;76.91;100494.47;4990111;28;20030;-64
2023/03/17 04:39:45;;;;;;;7.00;3.42;;;;;;;5.20;75.85;100489.38;4992224;28;20167;-64
2023/03/17 04:42:10;;;;;;;6.35;4.03;;;;;;;5.19;76.29;100494.47;4993821;28;20420;-65
2023/03/17 04:44:36;;;;;;;8.55;3.60;;;;;;;5.17;76.87;100493.63;4997711;28;20080;-64
2023/03/17 04:47:01;;;;;;;6.47;3.45;;;;;;;5.12;76.17;100505.53;4993129;28;20034;-64
2023/03/17 04:49:27;;;;;;;6.15;4.05;;;;;;;5.12;76.71;100491.03;4992775;28;20052;-64
2023/03/17 04:51:53;;;;;;;6.03;3.80;;;;;;;5.11;76.77;100481.63;5001880;28;20045;-64
2023/03/17 04:54:18;;;;;;;6.15;3.67;;;;;;;5.19;77.24;100474.84;4995659;28;20057;-65
2023/03/17 04:56:44;;;;;;;7.15;3.75;;;;;;;5.20;76.77;100476.56;4999203;28;20092;-65
2023/03/17 04:59:10;;;;;;;9.55;3.95;;;;;;;5.25;76.71;100468.06;4997190;28;20036;-64
2023/03/17 05:01:35;;;;;;;8.45;4.35;;;;;;;5.32;76.67;100469.81;4995272;28;20500;-64
2023/03/17 05:04:01;;;;;;;5.22;3.38;;;;;;;5.31;75.75;100476.66;5000707;28;20033;-64
2023/03/17 05:06:26;;;;;;;5.50;3.40;;;;;;;5.32;76.45;100474.94;5007651;28;20040;-64
2023/03/17 05:08:51;;;;;;;5.32;3.97;;;;;;;5.35;75.80;100475.84;4996015;28;20045;-65
2023/03/17 05:11:18;;;;;;;7.45;3.80;;;;;;;5.37;76.34;100463.88;5000778;28;20046;-64
2023/03/17 05:13:43;;;;;;;5.30;3.40;;;;;;;5.43;76.49;100466.50;4993841;28;20057;-64
2023/03/17 05:16:09;;;;;;;9.23;3.80;;;;;;;5.49;75.76;100458.84;5000157;28;20057;-64
2023/03/17 05:18:35;;;;;;;5.93;3.70;;;;;;;5.49;75.71;100463.97;4994987;28;20042;-64
2023/03/17 05:21:01;;;;;;;6.55;3.35;;;;;;;5.51;75.71;100464.88;4987584;28;20052;-64
2023/03/17 05:23:26;;;;;;;5.80;3.80;;;;;;;5.55;76.04;100470.84;4991448;28;20037;-64
2023/03/17 05:25:52;;;;;;;6.18;3.88;;;;;;;5.59;74.90;100473.47;5014993;28;20121;-64
2023/03/17 05:28:19;;;;;;;6.10;4.10;;;;;;;5.66;75.04;100462.41;4994842;28;20495;-64
2023/03/17 05:30:46;;;;;;;5.88;3.97;;;;;;;5.68;75.39;100459.84;4997847;28;20045;-64
2023/03/17 05:33:13;;;;;;;4.43;2.95;;;;;;;5.72;75.04;100461.59;4990559;28;20042;-64
2023/03/17 05:35:39;;;;;;;6.05;4.10;;;;;;;5.78;74.71;100453.94;4989520;28;20163;-64
2023/03/17 05:38:05;;;;;;;5.78;3.30;;;;;;;5.83;74.61;100464.19;4987653;28;20052;-64
2023/03/17 05:40:31;;;;;;;6.43;3.35;;;;;;;5.91;74.26;100460.81;5000047;28;20040;-64
2023/03/17 05:42:56;;;;;;;6.07;3.38;;;;;;;5.96;74.18;100453.16;4987400;28;20037;-64
2023/03/17 05:45:22;;;;;;;6.32;3.40;;;;;;;5.97;74.29;100458.28;4987726;28;20038;-64
2023/03/17 05:47:47;;;;;;;5.57;3.65;;;;;;;5.98;74.36;100459.16;4991855;28;20045;-64
2023/03/17 05:50:13;;;;;;;8.65;3.50;;;;;;;6.00;74.08;100444.63;4995051;28;20073;-64
2023/03/17 05:52:39;;;;;;;7.60;3.35;;;;;;;6.00;74.25;100439.50;4991643;28;20050;-64
2023/03/17 05:55:06;;;;;;;5.32;3.45;;;;;;;6.00;74.03;100434.38;5002230;28;20037;-64
2023/03/17 05:57:32;;;;;;;8.23;3.53;;;;;;;6.00;74.20;100430.09;4992441;28;20582;-65
2023/03/17 05:59:57;;;;;;;7.22;4.07;;;;;;;6.03;73.77;100424.97;4984926;28;20037;-64
2023/03/17 06:02:23;;;;;;;6.75;3.60;;;;;;;6.03;74.37;100424.97;4990414;28;20053;-64
2023/03/17 06:04:48;;;;;;;7.85;3.55;;;;;;;6.04;74.51;100420.72;4996072;28;20904;-64
2023/03/17 06:07:14;;;;;;;8.60;3.92;;;;;;;6.10;73.79;100429.28;4989054;28;20736;-64
2023/03/17 06:09:40;;;;;;;5.43;3.50;;;;;;;6.16;73.87;100426.75;4995387;28;20507;-64
2023/03/17 06:12:06;;;;;;;5.25;3.72;;;;;;;6.19;73.22;100433.59;4989915;28;20099;-64
2023/03/17 06:14:32;;;;;;;6.90;4.05;;;;;;;6.24;73.59;100432.75;4989691;28;20046;-64
2023/03/17 06:16:57;;;;;;;7.78;3.75;;;;;;;6.29;73.16;100436.19;4998159;28;20045;-64
2023/03/17 06:19:22;;;;;;;5.25;3.38;;;;;;;6.38;73.37;100444.81;4986509;28;20042;-64
2023/03/17 06:21:48;;;;;;;5.72;3.40;;;;;;;6.46;72.96;100435.41;4989267;28;20553;-64
2023/03/17 06:24:13;;;;;;;7.28;3.53;;;;;;;6.59;72.72;100417.44;4996833;28;20037;-64
2023/03/17 06:26:39;;;;;;;8.20;3.70;;;;;;;6.72;72.05;100414.06;4992445;28;20511;-64
2023/03/17 06:29:08;;;;;;;6.07;3.35;;;;;;;6.85;71.54;100402.94;4988466;28;20049;-64
2023/03/17 06:31:34;;;;;;;5.40;3.13;;;;;;;7.05;71.10;100396.97;5001166;28;20037;-65
2023/03/17 06:34:00;;;;;;;4.68;3.00;;;;;;;7.19;70.73;100390.13;4997459;28;20026;-65
2023/03/17 06:36:25;;;;;;;4.93;3.05;;;;;;;7.35;69.79;100379.84;4994020;28;20538;-64
2023/03/17 06:38:51;;;;;;;7.72;3.33;;;;;;;7.51;69.14;100365.22;4995920;28;20515;-64
2023/03/17 06:41:16;;;;;;;10.02;3.60;;;;;;;7.72;68.35;100351.44;4997050;28;20464;-64
2023/03/17 06:43:42;;;;;;;6.90;2.78;;;;;;;7.90;66.95;100330.78;4995171;28;20350;-64
2023/03/17 06:46:07;;;;;;;6.57;3.33;;;;;;;8.10;66.52;100320.41;4995878;28;20052;-64
2023/03/17 06:48:33;;;;;;;5.45;2.72;;;;;;;8.28;65.47;100308.25;4990138;28;20046;-64
2023/03/17 06:50:59;;;;;;;6.35;3.08;;;;;;;8.41;65.32;100298.75;4996233;28;20467;-64
2023/03/17 06:53:25;;;;;;;4.78;2.85;;;;;;;8.56;63.60;100296.91;4996943;28;20034;-65
2023/03/17 06:55:50;;;;;;;6.03;2.88;;;;;;;8.69;63.51;100297.69;4999629;28;20029;-65
2023/03/17 06:58:16;;;;;;;6.15;2.63;;;;;;;8.82;62.33;100277.78;4996188;28;20081;-67
2023/03/17 07:00:44;;;;;;;4.78;3.00;;;;;;;8.96;61.52;100273.38;4994746;28;20038;-66
2023/03/17 07:03:10;;;;;;;7.00;2.80;;;;;;;9.05;61.63;100281.84;4988194;28;20778;-66
2023/03/17 07:05:36;;;;;;;5.00;2.78;;;;;;;9.13;61.77;100289.53;5002490;28;20042;-66
2023/03/17 07:08:02;;;;;;;5.90;2.58;;;;;;;9.24;60.91;100284.25;4995409;28;20038;-66
2023/03/17 07:10:27;;;;;;;2.90;2.15;;;;;;;9.30;61.02;100290.19;5002767;28;20041;-66
2023/03/17 07:12:53;;;;;;;6.32;2.58;;;;;;;9.39;60.43;100282.38;5003712;28;20045;-66
2023/03/17 07:15:19;;;;;;;4.53;2.60;;;;;;;9.45;61.28;100302.06;4998736;28;20096;-66
2023/03/17 07:17:45;;;;;;;7.28;3.30;;;;;;;9.48;59.58;100292.59;4992909;28;20042;-66
2023/03/17 07:20:12;;;;;;;8.52;4.15;;;;;;;9.54;59.73;100287.34;4997810;28;20157;-65
2023/03/17 07:22:38;;;;;;;6.13;4.60;;;;;;;9.57;60.48;100297.66;4994692;28;20041;-66
2023/03/17 07:25:04;;;;;;;7.95;2.92;;;;;;;9.62;59.54;100282.97;4999128;28;20399;-65
2023/03/17 07:27:30;;;;;;;4.65;2.50;;;;;;;9.73;59.35;100275.13;4993496;28;20045;-65
2023/03/17 07:29:55;;;;;;;7.18;3.10;;;;;;;9.79;60.15;100272.47;4987484;28;20057;-65
2023/03/17 07:32:20;;;;;;;5.50;2.95;;;;;;;9.85;59.69;100272.34;4991497;28;20037;-66
2023/03/17 07:34:46;;;;;;;5.18;2.67;;;;;;;9.88;59.42;100271.47;4998881;28;20668;-66
2023/03/17 07:37:11;;;;;;;6.50;2.97;;;;;;;9.94;59.14;100268.81;4994086;28;20084;-66
2023/03/17 07:39:38;;;;;;;5.47;2.30;;;;;;;10.00;59.30;100269.56;4994878;28;20038;-66
2023/03/17 07:42:03;;;;;;;5.63;2.63;;;;;;;10.07;57.95;100247.94;4995270;28;20043;-66
2023/03/17 07:44:30;;;;;;;4.88;2.65;;;;;;;10.18;57.78;100255.53;4995849;28;20044;-66
2023/03/17 07:46:55;;;;;;;4.90;2.22;;;;;;;10.29;57.25;100245.91;4995660;28;20038;-67
2023/03/17 07:49:20;;;;;;;5.38;2.33;;;;;;;10.40;57.27;100236.25;4997939;28;20034;-66
2023/03/17 07:51:46;;;;;;;4.47;2.53;;;;;;;10.53;57.33;100252.41;4995711;28;20034;-67
2023/03/17 07:54:13;;;;;;;5.28;2.60;;;;;;;10.65;57.10;100237.53;4996958;28;20529;-66
2023/03/17 07:56:39;;;;;;;3.63;2.70;;;;;;;10.79;56.75;100240.75;4999712;28;20117;-66
2023/03/17 07:59:07;;;;;;;4.50;2.40;;;;;;;10.92;55.94;100231.03;5005283;28;20052;-66
2023/03/17 08:01:33;;;;;;;5.20;2.53;;;;;;;11.04;56.16;100228.22;4999593;28;20038;-67
2023/03/17 08:03:59;;;;;;;7.18;3.30;;;;;;;11.17;55.40;100227.13;4981125;28;20033;-66
2023/03/17 08:06:25;;;;;;;5.25;2.85;;;;;;;11.27;55.41;100220.03;4997137;28;20042;-73
2023/03/17 08:08:52;;;;;;;3.60;2.13;;;;;;;11.34;54.79;100224.19;4988772;28;20181;-73
2023/03/17 08:11:18;;;;;;;4.13;2.60;;;;;;;11.37;54.02;100213.78;4992527;28;20487;-73
2023/03/17 08:13:44;;;;;;;6.65;2.53;;;;;;;11.44;53.47;100217.13;4995455;28;20430;-74
2023/03/17 08:16:10;;;;;;;7.00;3.25;;;;;;;11.52;53.89;100217.81;4996452;28;20045;-73
2023/03/17 08:18:36;;;;;;;5.82;2.28;;;;;;;11.58;53.97;100234.06;4991966;28;20068;-73
2023/03/17 08:21:02;;;;;;;8.52;2.50;;;;;;;11.69;53.90;100219.16;4994748;28;20140;-73
2023/03/17 08:23:27;;;;;;;6.75;2.50;;;;;;;11.76;52.70;100212.09;4994999;28;20064;-73
2023/03/17 08:25:57;;;;;;;5.05;2.30;;;;;;;11.87;52.81;100220.50;4992362;28;20042;-71
2023/03/17 08:28:22;;;;;;;8.35;2.38;;;;;;;11.92;53.28;100234.19;4993878;28;20047;-70
2023/03/17 08:30:49;;;;;;;5.88;2.75;;;;;;;11.96;52.11;100217.69;4996590;28;20431;-72
2023/03/17 08:33:14;;;;;;;5.65;2.47;;;;;;;12.03;52.71;100218.41;4993182;28;20034;-72
2023/03/17 08:35:40;;;;;;;5.07;2.10;;;;;;;12.06;52.27;100223.53;4995207;28;20104;-72
2023/03/17 08:38:07;;;;;;;4.05;2.35;;;;;;;12.16;52.52;100227.63;4987255;28;20049;-73
2023/03/17 08:40:32;;;;;;;7.07;2.47;;;;;;;12.25;51.93;100217.91;4994324;28;20057;-72
2023/03/17 08:42:58;;;;;;;3.90;2.25;;;;;;;12.37;52.16;100224.50;4993944;28;20523;-72
2023/03/17 08:45:23;;;;;;;4.05;2.60;;;;;;;12.49;51.01;100198.28;5001253;28;20551;-72
2023/03/17 08:47:49;;;;;;;3.85;2.25;;;;;;;12.67;50.70;100199.56;4998659;28;20124;-72
2023/03/17 08:50:19;;;;;;;7.78;2.80;;;;;;;12.84;50.51;100189.59;4995135;28;20042;-71
2023/03/17 08:52:45;;;;;;;4.75;2.63;;;;;;;12.98;50.68;100195.25;4996586;28;20120;-71
2023/03/17 08:55:12;;;;;;;6.30;2.63;;;;;;;13.15;50.48;100190.47;4989353;28;20933;-70
2023/03/17 08:57:38;;;;;;;5.45;2.85;;;;;;;13.27;50.05;100178.91;4995096;28;20084;-73
2023/03/17 09:00:09;;;;;;;3.85;2.55;;;;;;;13.35;49.69;100176.97;4990491;28;20663;-72
2023/03/17 09:02:36;;;;;;;5.47;2.45;;;;;;;13.46;49.72;100180.94;4992658;28;20047;-72
2023/03/17 09:05:04;;;;;;;5.82;2.33;;;;;;;13.65;49.25;100170.00;5010201;28;20033;-72
2023/03/17 09:07:29;;;;;;;5.75;2.30;;;;;;;13.81;48.86;100176.41;4995175;28;20403;-72
2023/03/17 09:09:55;;;;;;;6.53;2.40;;;;;;;13.81;48.69;100159.09;4984494;28;20041;-73
2023/03/17 09:12:21;;;;;;;6.03;2.55;;;;;;;13.93;48.46;100176.03;4986665;28;20038;-73
2023/03/17 09:14:47;;;;;;;5.07;2.38;;;;;;;13.94;48.45;100170.81;4990162;28;20278;-72
2023/03/17 09:17:14;;;;;;;4.72;2.30;;;;;;;13.99;47.11;100162.84;5001620;28;20045;-71
2023/03/17 09:19:40;;;;;;;4.30;2.42;;;;;;;14.00;47.01;100174.97;4994373;28;20038;-71
2023/03/17 09:22:06;;;;;;;5.93;2.55;;;;;;;14.07;47.50;100179.91;4982488;28;20045;-70
2023/03/17 09:24:32;;;;;;;8.13;2.60;;;;;;;14.19;47.14;100190.81;4993943;28;20062;-71
2023/03/17 09:26:58;;;;;;;3.88;2.60;;;;;;;14.34;47.69;100198.09;4993239;28;20145;-70
2023/03/17 09:29:25;;;;;;;4.25;2.38;;;;;;;14.37;47.18;100203.19;4989290;28;20404;-69
2023/03/17 09:31:51;;;;;;;3.33;2.35;;;;;;;14.45;47.38;100196.91;4997282;28;20037;-69
2023/03/17 09:34:17;;;;;;;4.88;2.15;;;;;;;14.48;47.21;100191.56;4993993;28;20481;-70
2023/03/17 09:36:42;;;;;;;6.15;2.65;;;;;;;14.60;46.85;100195.53;4993910;28;20421;-70
2023/03/17 09:39:08;;;;;;;4.80;2.08;;;;;;;14.66;46.54;100182.31;4991768;28;20044;-71
2023/03/17 09:41:36;;;;;;;5.32;2.33;;;;;;;14.77;46.34;100182.78;5000021;28;20923;-70
2023/03/17 09:44:11;;;;;;;5.40;2.10;;;;;;;14.74;48.29;100202.84;4990424;28;20033;-70
2023/03/17 09:46:39;;;;;;;4.63;1.80;;;;;;;14.60;47.34;100188.56;4995316;28;20036;-71
2023/03/17 09:49:12;;;;;;;6.20;2.17;;;;;;;14.38;47.52;100190.19;4994540;28;20046;-71
2023/03/17 09:51:38;;;;;;;4.03;2.03;;;;;;;14.45;48.07;100199.50;4993647;28;20041;-71
2023/03/17 09:54:10;;;;;;;5.05;3.20;;;;;;;14.46;48.07;100198.59;4988190;28;20038;-73
2023/03/17 09:56:40;;;;;;;4.43;2.17;;;;;;;14.69;47.78;100192.63;4996468;28;20053;-72
2023/03/17 09:59:21;;;;;;;3.75;2.22;;;;;;;14.86;47.48;100197.25;4995121;28;20099;-71
2023/03/17 10:01:46;;;;;;;4.65;2.50;;;;;;;15.01;46.86;100170.69;4991504;28;20052;-72
2023/03/17 10:04:19;;;;;;;4.90;2.50;;;;;;;15.19;46.29;100176.06;4993650;28;20548;-71
2023/03/17 10:06:46;;;;;;;4.65;2.38;;;;;;;15.39;46.24;100174.47;4994717;28;20049;-71
2023/03/17 10:09:22;;;;;;;4.55;2.20;;;;;;;15.49;45.68;100170.63;4989860;28;20454;-72
2023/03/17 10:12:12;;;;;;;7.03;2.42;;;;;;;15.71;45.57;100174.13;4995286;28;20054;-71
2023/03/17 10:14:49;;;;;;;5.22;2.28;;;;;;;15.64;44.05;100160.47;4993987;28;20054;-71
2023/03/17 10:17:17;;;;;;;4.25;2.42;;;;;;;15.67;45.07;100176.00;4997503;28;20053;-71
2023/03/17 10:19:58;;;;;;;7.07;2.30;;;;;;;15.83;45.07;100181.47;4989320;28;20093;-71
2023/03/17 10:22:45;;;;;;;3.75;2.17;;;;;;;16.04;44.88;100183.25;4993023;28;20042;-71
2023/03/17 10:25:32;;;;;;;5.05;2.35;;;;;;;16.17;44.07;100170.56;5003526;28;20046;-71
2023/03/17 10:28:02;;;;;;;7.22;2.17;;;;;;;16.13;44.01;100159.41;4987340;28;20046;-71
2023/03/17 10:30:32;;;;;;;4.60;2.40;;;;;;;16.11;43.58;100153.41;4993789;28;20052;-71
2023/03/17 10:32:59;;;;;;;10.50;2.75;;;;;;;16.13;43.64;100166.38;4996511;28;20037;-71
2023/03/17 10:35:25;;;;;;;4.28;2.50;;;;;;;16.05;43.72;100173.66;4993275;28;20136;-72
2023/03/17 10:37:50;;;;;;;6.30;2.45;;;;;;;15.98;43.75;100173.06;4990845;28;20034;-67
2023/03/17 10:40:23;;;;;;;4.00;2.30;;;;;;;15.99;44.76;100187.78;4995104;28;20041;-67
2023/03/17 10:42:59;;;;;;;3.47;1.92;;;;;;;16.03;43.96;100180.69;4995436;28;20562;-68
2023/03/17 10:45:31;;;;;;;4.72;2.22;;;;;;;15.90;43.83;100180.34;4989645;28;20050;-68
2023/03/17 10:47:58;;;;;;;7.40;2.30;;;;;;;15.95;44.22;100174.94;4995529;28;20044;-67
2023/03/17 10:50:27;;;;;;;3.95;2.30;;;;;;;15.86;44.92;100183.09;4989700;28;20077;-67
2023/03/17 10:53:26;;;;;;;5.47;2.47;;;;;;;15.78;45.00;100183.41;4997401;28;20044;-68
2023/03/17 10:55:55;;;;;;;7.60;2.35;;;;;;;15.91;45.93;100189.00;4991751;28;20061;-67
2023/03/17 10:58:33;;;;;;;3.95;2.05;;;;;;;16.09;46.19;100186.50;4992274;28;20042;-67
2023/03/17 11:01:15;;;;;;;3.95;2.33;;;;;;;16.15;46.09;100168.00;4995169;28;20026;-67
2023/03/17 11:03:41;;;;;;;3.60;2.10;;;;;;;15.99;44.89;100158.25;4999604;28;20038;-68
2023/03/17 11:06:15;;;;;;;4.57;2.38;;;;;;;16.08;44.90;100158.75;4989710;28;20522;-67
2023/03/17 11:08:49;;;;;;;6.13;2.30;;;;;;;16.31;45.72;100170.84;4994934;28;20042;-67
2023/03/17 11:11:28;;;;;;;3.60;2.05;;;;;;;16.28;45.24;100153.56;4992505;28;20153;-67
2023/03/17 11:14:02;;;;;;;4.15;2.65;;;;;;;16.14;46.50;100163.72;4992679;28;20730;-65
2023/03/17 11:16:30;;;;;;;6.97;2.20;;;;;;;16.12;46.02;100152.47;4999418;28;20045;-66
2023/03/17 11:18:58;;;;;;;5.00;2.85;;;;;;;16.07;46.24;100172.69;4997997;28;20039;-67
2023/03/17 11:21:34;;;;;;;5.47;2.30;;;;;;;16.12;46.92;100181.16;4994540;28;20117;-68
2023/03/17 11:24:03;;;;;;;4.35;2.08;;;;;;;16.25;45.58;100166.72;4996273;28;20565;-73
2023/03/17 11:26:37;;;;;;;3.90;2.03;;;;;;;16.37;45.78;100159.31;4995438;28;20575;-72
2023/03/17 11:29:12;;;;;;;7.13;2.20;;;;;;;16.39;46.15;100158.31;4993633;28;20029;-70
2023/03/17 11:31:52;;;;;;;6.55;2.10;;;;;;;16.54;45.12;100142.03;4993648;28;20036;-68